createdAt,value
2023-03-31T00:01:28.915Z,8.18
2023-03-31T00:04:05.762Z,8.18
2023-03-31T00:06:41.868Z,8.19
2023-03-31T00:09:16.059Z,8.21
2023-03-31T00:11:45.444Z,8.24
2023-03-31T00:14:14.109Z,8.25
2023-03-31T00:16:42.413Z,8.29
2023-03-31T00:19:18.153Z,8.34
2023-03-31T00:21:51.516Z,8.42
2023-03-31T00:24:19.898Z,8.51
2023-03-31T00:26:48.173Z,8.59
2023-03-31T00:29:16.522Z,8.67
2023-03-31T00:31:44.760Z,8.72
2023-03-31T00:34:13.120Z,8.77
2023-03-31T00:36:47.627Z,8.81
2023-03-31T00:39:18.160Z,8.84
2023-03-31T00:41:46.924Z,8.87
2023-03-31T00:44:23.155Z,8.89
2023-03-31T00:46:55.342Z,8.92
2023-03-31T00:49:26.339Z,8.98
2023-03-31T00:51:55.610Z,9.07
2023-03-31T00:54:25.536Z,9.17
2023-03-31T00:56:55.668Z,9.25
2023-03-31T00:59:27.719Z,9.32
2023-03-31T01:01:59.375Z,9.39
2023-03-31T01:04:31.055Z,9.45
2023-03-31T01:07:09.437Z,9.52
2023-03-31T01:09:39.109Z,9.59
2023-03-31T01:12:09.255Z,9.66
2023-03-31T01:14:37.757Z,9.71
2023-03-31T01:17:09.934Z,9.73
2023-03-31T01:19:56.968Z,9.76
2023-03-31T01:22:46.815Z,9.78
2023-03-31T01:25:34.045Z,9.83
2023-03-31T01:28:30.105Z,9.88
2023-03-31T01:31:27.305Z,9.92
2023-03-31T01:34:18.216Z,9.93
2023-03-31T01:36:49.126Z,9.93
2023-03-31T01:39:41.881Z,9.92
2023-03-31T01:42:20.205Z,9.89
2023-03-31T01:44:57.898Z,9.84
2023-03-31T01:47:31.829Z,9.80
2023-03-31T01:50:05.947Z,9.75
2023-03-31T01:52:46.658Z,9.72
2023-03-31T01:55:19.587Z,9.68
2023-03-31T01:57:55.113Z,9.65
2023-03-31T02:00:29.613Z,9.60
2023-03-31T02:03:18.195Z,9.56
2023-03-31T02:05:49.438Z,9.52
2023-03-31T02:08:46.389Z,9.47
2023-03-31T02:11:14.746Z,9.44
2023-03-31T02:13:47.122Z,9.42
2023-03-31T02:16:19.192Z,9.41
2023-03-31T02:18:48.439Z,9.43
2023-03-31T02:21:16.716Z,9.45
2023-03-31T02:23:45.625Z,9.47
2023-03-31T02:26:22.056Z,9.49
2023-03-31T02:28:50.904Z,9.48
2023-03-31T02:31:24.170Z,9.47
2023-03-31T02:33:53.618Z,9.44
2023-03-31T02:36:22.064Z,9.41
2023-03-31T02:39:00.930Z,9.38
2023-03-31T02:41:29.852Z,9.34
2023-03-31T02:43:58.184Z,9.31
2023-03-31T02:46:26.390Z,9.30
2023-03-31T02:48:56.464Z,9.30
2023-03-31T02:51:43.234Z,9.33
2023-03-31T02:54:20.417Z,9.36
2023-03-31T02:57:21.394Z,9.39
2023-03-31T03:00:12.713Z,9.40
2023-03-31T03:02:44.464Z,9.40
2023-03-31T03:05:28.707Z,9.39
2023-03-31T03:08:36.740Z,9.37
2023-03-31T03:11:05.097Z,9.35
2023-03-31T03:13:54.883Z,9.33
2023-03-31T03:16:29.177Z,9.30
2023-03-31T03:18:59.340Z,9.29
2023-03-31T03:21:32.326Z,9.29
2023-03-31T03:24:01.841Z,9.30
2023-03-31T03:26:30.348Z,9.34
2023-03-31T03:28:59.021Z,9.37
2023-03-31T03:31:27.274Z,9.39
2023-03-31T03:33:56.126Z,9.41
2023-03-31T03:36:24.539Z,9.42
2023-03-31T03:38:55.820Z,9.42
2023-03-31T03:41:24.065Z,9.41
2023-03-31T03:43:52.241Z,9.41
2023-03-31T03:46:20.517Z,9.39
2023-03-31T03:48:53.470Z,9.38
2023-03-31T03:51:22.277Z,9.36
2023-03-31T03:53:50.534Z,9.36
2023-03-31T03:56:18.997Z,9.37
2023-03-31T03:58:47.989Z,9.37
2023-03-31T04:01:22.951Z,9.39
2023-03-31T04:03:51.783Z,9.43
2023-03-31T04:06:20.012Z,9.48
2023-03-31T04:08:48.313Z,9.53
2023-03-31T04:11:20.144Z,9.58
2023-03-31T04:13:49.252Z,9.62
2023-03-31T04:16:17.433Z,9.66
2023-03-31T04:18:46.296Z,9.70
2023-03-31T04:21:23.191Z,9.71
2023-03-31T04:23:59.097Z,9.72
2023-03-31T04:26:39.226Z,9.73
2023-03-31T04:29:07.764Z,9.74
2023-03-31T04:31:38.921Z,9.76
2023-03-31T04:34:13.493Z,9.77
2023-03-31T04:36:49.926Z,9.80
2023-03-31T04:39:24.524Z,9.84
2023-03-31T04:41:58.829Z,9.90
2023-03-31T04:44:27.493Z,9.98
2023-03-31T04:46:55.856Z,10.05
2023-03-31T04:49:25.266Z,10.14
2023-03-31T04:51:53.688Z,10.20
2023-03-31T04:54:26.249Z,10.27
2023-03-31T04:56:55.119Z,10.32
2023-03-31T04:59:23.474Z,10.36
2023-03-31T05:01:51.755Z,10.41
2023-03-31T05:04:21.293Z,10.47
2023-03-31T05:06:49.501Z,10.53
2023-03-31T05:09:17.972Z,10.59
2023-03-31T05:11:46.405Z,10.65
2023-03-31T05:14:14.674Z,10.69
2023-03-31T05:16:43.441Z,10.72
2023-03-31T05:19:11.834Z,10.75
2023-03-31T05:21:40.067Z,10.77
2023-03-31T05:24:08.834Z,10.80
2023-03-31T05:26:37.757Z,10.81
2023-03-31T05:29:07.309Z,10.84
2023-03-31T05:31:36.193Z,10.88
2023-03-31T05:34:04.481Z,10.92
2023-03-31T05:36:35.222Z,10.97
2023-03-31T05:39:12.206Z,11.00
2023-03-31T05:41:40.614Z,11.03
2023-03-31T05:44:09.030Z,11.04
2023-03-31T05:46:37.562Z,11.05
2023-03-31T05:49:07.231Z,11.08
2023-03-31T05:51:35.478Z,11.12
2023-03-31T05:54:03.787Z,11.19
2023-03-31T05:56:32.473Z,11.35
2023-03-31T05:59:01.545Z,11.57
2023-03-31T06:01:30.287Z,11.82
2023-03-31T06:03:58.732Z,12.09
2023-03-31T06:06:27.991Z,12.43
2023-03-31T06:08:58.288Z,12.83
2023-03-31T06:11:26.917Z,13.25
2023-03-31T06:13:55.245Z,13.64
2023-03-31T06:16:23.687Z,14.02
2023-03-31T06:18:53.697Z,14.37
2023-03-31T06:21:21.935Z,14.64
2023-03-31T06:23:50.532Z,14.85
2023-03-31T06:26:19.094Z,14.98
2023-03-31T06:28:48.122Z,15.03
2023-03-31T06:31:17.928Z,15.00
2023-03-31T06:33:46.486Z,14.95
2023-03-31T06:36:17.046Z,14.84
2023-03-31T06:38:46.373Z,14.71
2023-03-31T06:41:14.999Z,14.61
2023-03-31T06:43:43.194Z,14.52
2023-03-31T06:46:11.979Z,14.41
2023-03-31T06:48:41.508Z,14.29
2023-03-31T06:51:11.399Z,14.18
2023-03-31T06:53:39.930Z,14.10
2023-03-31T06:56:08.456Z,14.05
2023-03-31T06:58:37.944Z,14.02
2023-03-31T07:01:07.105Z,14.01
2023-03-31T07:03:44.271Z,14.03
2023-03-31T07:06:13.168Z,14.05
2023-03-31T07:08:41.369Z,14.07
2023-03-31T07:11:10.101Z,14.08
2023-03-31T07:13:42.234Z,14.09
2023-03-31T07:16:13.799Z,14.10
2023-03-31T07:18:42.411Z,14.12
2023-03-31T07:21:11.105Z,14.13
2023-03-31T07:23:40.000Z,14.14
2023-03-31T07:26:08.768Z,14.15
2023-03-31T07:28:37.190Z,14.17
2023-03-31T07:31:11.542Z,14.22
2023-03-31T07:33:41.138Z,14.26
2023-03-31T07:36:13.264Z,14.30
2023-03-31T07:38:47.033Z,14.31
2023-03-31T07:41:18.012Z,14.28
2023-03-31T07:43:46.463Z,14.24
2023-03-31T07:46:22.948Z,14.21
2023-03-31T07:48:51.629Z,14.18
2023-03-31T07:51:22.046Z,14.17
2023-03-31T07:53:52.625Z,14.18
2023-03-31T07:56:24.072Z,14.19
2023-03-31T07:58:57.508Z,14.19
2023-03-31T08:01:26.998Z,14.21
2023-03-31T08:03:56.109Z,14.22
2023-03-31T08:06:25.305Z,14.24
2023-03-31T08:08:53.472Z,14.26
2023-03-31T08:11:24.360Z,14.26
2023-03-31T08:13:52.988Z,14.23
2023-03-31T08:16:21.438Z,14.21
2023-03-31T08:18:50.722Z,14.22
2023-03-31T08:21:18.968Z,14.23
2023-03-31T08:23:55.202Z,14.25
2023-03-31T08:26:27.470Z,14.28
2023-03-31T08:28:57.940Z,14.33
2023-03-31T08:31:29.318Z,14.37
2023-03-31T08:33:57.697Z,14.37
2023-03-31T08:36:29.805Z,14.36
2023-03-31T08:38:58.263Z,14.34
2023-03-31T08:41:28.651Z,14.33
2023-03-31T08:43:57.071Z,14.36
2023-03-31T08:46:25.591Z,14.39
2023-03-31T08:48:57.778Z,14.45
2023-03-31T08:51:41.446Z,14.50
2023-03-31T08:54:17.947Z,14.54
2023-03-31T08:56:50.722Z,14.56
2023-03-31T08:59:31.774Z,14.57
2023-03-31T09:02:03.272Z,14.58
2023-03-31T09:04:53.583Z,14.60
2023-03-31T09:07:35.017Z,14.64
2023-03-31T09:10:29.104Z,14.68
2023-03-31T09:13:07.283Z,14.72
2023-03-31T09:15:56.286Z,14.74
2023-03-31T09:18:31.171Z,14.74
2023-03-31T09:21:12.012Z,14.73
2023-03-31T09:23:51.393Z,14.72
2023-03-31T09:26:46.984Z,14.73
2023-03-31T09:29:41.070Z,14.72
2023-03-31T09:32:14.497Z,14.73
2023-03-31T09:34:42.791Z,14.75
2023-03-31T09:37:11.597Z,14.79
2023-03-31T09:39:41.637Z,14.81
2023-03-31T09:42:13.602Z,14.83
2023-03-31T09:44:44.127Z,14.83
2023-03-31T09:47:39.201Z,14.83
2023-03-31T09:50:08.154Z,14.80
2023-03-31T09:52:44.693Z,14.78
2023-03-31T09:55:38.371Z,14.76
2023-03-31T09:58:08.745Z,14.75
2023-03-31T10:00:37.772Z,14.76
2023-03-31T10:03:09.150Z,14.78
2023-03-31T10:05:50.979Z,14.79
2023-03-31T10:08:25.813Z,14.79
2023-03-31T10:10:55.778Z,14.78
2023-03-31T10:13:37.220Z,14.78
2023-03-31T10:16:09.254Z,14.80
2023-03-31T10:18:43.158Z,14.81
2023-03-31T10:21:26.042Z,14.82
2023-03-31T10:23:55.089Z,14.85
2023-03-31T10:26:27.247Z,14.88
2023-03-31T10:28:56.003Z,14.90
2023-03-31T10:31:34.066Z,14.92
2023-03-31T10:34:10.002Z,14.93
2023-03-31T10:36:39.837Z,14.96
2023-03-31T10:39:08.150Z,14.98
2023-03-31T10:41:36.890Z,15.01
2023-03-31T10:44:05.185Z,15.05
2023-03-31T10:46:44.337Z,15.10
2023-03-31T10:49:39.606Z,15.13
2023-03-31T10:52:25.855Z,15.18
2023-03-31T10:55:04.181Z,15.19
2023-03-31T10:57:39.246Z,15.19
2023-03-31T11:00:16.256Z,15.21
2023-03-31T11:03:03.785Z,15.27
2023-03-31T11:05:42.791Z,15.35
2023-03-31T11:08:13.789Z,15.41
2023-03-31T11:11:07.217Z,15.43
2023-03-31T11:13:48.733Z,15.46
2023-03-31T11:16:22.583Z,15.45
2023-03-31T11:18:54.118Z,15.42
2023-03-31T11:21:44.116Z,15.40
2023-03-31T11:24:15.882Z,15.39
2023-03-31T11:27:00.566Z,15.40
2023-03-31T11:29:36.632Z,15.41
2023-03-31T11:32:31.166Z,15.41
2023-03-31T11:35:37.501Z,15.37
2023-03-31T11:38:24.819Z,15.33
2023-03-31T11:41:08.518Z,15.27
2023-03-31T11:43:51.182Z,15.25
2023-03-31T11:46:25.060Z,15.24
2023-03-31T11:48:59.897Z,15.24
2023-03-31T11:51:52.890Z,15.27
2023-03-31T11:54:35.497Z,15.31
2023-03-31T11:57:12.859Z,15.35
2023-03-31T11:59:41.207Z,15.39
2023-03-31T12:02:14.965Z,15.40
2023-03-31T12:04:44.452Z,15.39
2023-03-31T12:07:25.088Z,15.36
2023-03-31T12:10:13.698Z,15.32
2023-03-31T12:13:02.533Z,15.28
2023-03-31T12:15:43.265Z,15.24
2023-03-31T12:18:18.160Z,15.24
2023-03-31T12:20:53.260Z,15.26
2023-03-31T12:23:28.227Z,15.27
2023-03-31T12:26:18.390Z,15.31
2023-03-31T12:28:56.108Z,15.34
2023-03-31T12:31:24.443Z,15.36
2023-03-31T12:33:59.358Z,15.37
2023-03-31T12:36:46.440Z,15.38
2023-03-31T12:39:36.714Z,15.38
2023-03-31T12:42:43.437Z,15.40
2023-03-31T12:45:18.829Z,15.41
2023-03-31T12:48:00.589Z,15.41
2023-03-31T12:50:47.467Z,15.40
2023-03-31T12:53:34.328Z,15.37
2023-03-31T12:56:02.727Z,15.30
2023-03-31T12:58:34.966Z,15.24
2023-03-31T13:01:22.788Z,15.19
2023-03-31T13:04:19.045Z,15.13
2023-03-31T13:06:54.751Z,15.08
2023-03-31T13:09:34.734Z,15.04
2023-03-31T13:12:08.847Z,15.00
2023-03-31T13:14:38.004Z,14.93
2023-03-31T13:17:25.207Z,14.87
2023-03-31T13:19:53.979Z,14.83
2023-03-31T13:22:33.043Z,14.83
2023-03-31T13:25:29.322Z,14.86
2023-03-31T13:27:58.691Z,14.94
2023-03-31T13:30:45.171Z,15.00
2023-03-31T13:33:36.123Z,15.06
2023-03-31T13:36:32.799Z,15.08
2023-03-31T13:39:46.427Z,15.07
2023-03-31T13:42:52.714Z,15.07
2023-03-31T13:45:34.143Z,15.08
2023-03-31T13:48:27.120Z,15.10
2023-03-31T13:51:09.232Z,15.12
2023-03-31T13:53:49.048Z,15.13
2023-03-31T13:56:28.482Z,15.10
2023-03-31T13:59:17.155Z,15.06
2023-03-31T14:02:00.724Z,14.99
2023-03-31T14:05:00.030Z,14.90
2023-03-31T14:07:41.493Z,14.80
2023-03-31T14:10:30.359Z,14.72
2023-03-31T14:13:17.794Z,14.65
2023-03-31T14:15:54.770Z,14.57
2023-03-31T14:18:26.340Z,14.50
2023-03-31T14:21:17.956Z,14.44
2023-03-31T14:23:58.107Z,14.37
2023-03-31T14:26:46.819Z,14.31
2023-03-31T14:29:28.498Z,14.26
2023-03-31T14:31:59.819Z,14.23
2023-03-31T14:34:33.253Z,14.20
2023-03-31T14:37:05.389Z,14.16
2023-03-31T14:39:45.028Z,14.10
2023-03-31T14:42:17.508Z,14.07
2023-03-31T14:44:47.794Z,14.04
2023-03-31T14:47:17.042Z,14.00
2023-03-31T14:49:45.489Z,13.96
2023-03-31T14:52:21.326Z,13.93
2023-03-31T14:54:49.631Z,13.89
2023-03-31T14:57:22.796Z,13.86
2023-03-31T14:59:51.574Z,13.84
2023-03-31T15:02:34.039Z,13.83
2023-03-31T15:05:07.857Z,13.83
2023-03-31T15:07:41.167Z,13.81
2023-03-31T15:10:12.828Z,13.79
2023-03-31T15:12:48.794Z,13.78
2023-03-31T15:15:17.854Z,13.76
2023-03-31T15:17:47.017Z,13.75
2023-03-31T15:20:26.012Z,13.75
2023-03-31T15:22:56.567Z,13.74
2023-03-31T15:25:27.312Z,13.73
2023-03-31T15:27:59.122Z,13.72
2023-03-31T15:30:27.801Z,13.69
2023-03-31T15:33:07.553Z,13.66
2023-03-31T15:35:45.746Z,13.61
2023-03-31T15:38:18.850Z,13.57
2023-03-31T15:40:53.442Z,13.53
2023-03-31T15:43:32.469Z,13.48
2023-03-31T15:46:01.391Z,13.43
2023-03-31T15:48:33.982Z,13.39
2023-03-31T15:51:14.607Z,13.36
2023-03-31T15:53:47.774Z,13.33
2023-03-31T15:56:32.340Z,13.30
2023-03-31T15:59:05.554Z,13.28
2023-03-31T16:01:36.566Z,13.27
2023-03-31T16:04:13.282Z,13.26
2023-03-31T16:06:54.243Z,13.27
2023-03-31T16:09:38.292Z,13.28
2023-03-31T16:12:21.765Z,13.28
2023-03-31T16:14:57.563Z,13.28
2023-03-31T16:17:34.976Z,13.28
2023-03-31T16:20:24.813Z,13.28
2023-03-31T16:22:54.475Z,13.26
2023-03-31T16:25:24.082Z,13.24
2023-03-31T16:27:57.463Z,13.22
2023-03-31T16:30:42.496Z,13.21
2023-03-31T16:33:26.654Z,13.20
2023-03-31T16:35:59.000Z,13.19
2023-03-31T16:38:28.267Z,13.18
2023-03-31T16:40:57.464Z,13.18
2023-03-31T16:43:27.753Z,13.18
2023-03-31T16:46:00.732Z,13.16
2023-03-31T16:48:30.309Z,13.15
2023-03-31T16:51:04.407Z,13.17
2023-03-31T16:53:34.749Z,13.19
2023-03-31T16:56:04.340Z,13.21
2023-03-31T16:58:34.031Z,13.20
2023-03-31T17:01:02.274Z,13.19
2023-03-31T17:03:34.588Z,13.20
2023-03-31T17:06:11.522Z,13.22
2023-03-31T17:08:40.119Z,13.25
2023-03-31T17:11:12.507Z,13.29
2023-03-31T17:13:42.289Z,13.32
2023-03-31T17:16:17.591Z,13.33
2023-03-31T17:18:53.743Z,13.35
2023-03-31T17:21:22.255Z,13.35
2023-03-31T17:23:54.784Z,13.35
2023-03-31T17:26:23.787Z,13.35
2023-03-31T17:28:52.151Z,13.34
2023-03-31T17:31:21.275Z,13.34
2023-03-31T17:33:49.555Z,13.33
2023-03-31T17:36:22.432Z,13.33
2023-03-31T17:38:51.123Z,13.34
2023-03-31T17:41:19.317Z,13.35
2023-03-31T17:43:50.419Z,13.32
2023-03-31T17:46:19.252Z,13.31
2023-03-31T17:48:48.673Z,13.34
2023-03-31T17:51:18.558Z,13.35
2023-03-31T17:53:48.082Z,13.36
2023-03-31T17:56:17.221Z,13.36
2023-03-31T17:58:45.732Z,13.37
2023-03-31T18:01:14.624Z,13.38
2023-03-31T18:03:45.156Z,13.40
2023-03-31T18:06:19.390Z,13.40
2023-03-31T18:08:48.099Z,13.40
2023-03-31T18:11:16.589Z,13.40
2023-03-31T18:13:53.297Z,13.40
2023-03-31T18:16:21.835Z,13.41
2023-03-31T18:18:50.209Z,13.42
2023-03-31T18:21:18.676Z,13.42
2023-03-31T18:23:52.640Z,13.43
2023-03-31T18:26:23.898Z,13.45
2023-03-31T18:28:55.489Z,13.48
2023-03-31T18:31:26.973Z,13.50
2023-03-31T18:33:55.294Z,13.53
2023-03-31T18:36:23.934Z,13.54
2023-03-31T18:38:53.475Z,13.58
2023-03-31T18:41:23.196Z,13.61
2023-03-31T18:43:52.427Z,13.63
2023-03-31T18:46:21.179Z,13.65
2023-03-31T18:48:50.368Z,13.67
2023-03-31T18:51:18.781Z,13.69
2023-03-31T18:53:47.614Z,13.70
2023-03-31T18:56:16.399Z,13.71
2023-03-31T18:58:45.327Z,13.72
2023-03-31T19:01:13.740Z,13.73
2023-03-31T19:03:44.929Z,13.75
2023-03-31T19:06:14.060Z,13.76
2023-03-31T19:08:42.315Z,13.77
2023-03-31T19:11:15.458Z,13.76
2023-03-31T19:13:43.999Z,13.77
2023-03-31T19:16:32.293Z,13.77
2023-03-31T19:19:04.030Z,13.77
2023-03-31T19:21:33.372Z,13.77
2023-03-31T19:24:01.680Z,13.76
2023-03-31T19:26:30.820Z,13.76
2023-03-31T19:28:59.509Z,13.76
2023-03-31T19:31:38.476Z,13.76
2023-03-31T19:34:13.132Z,13.75
2023-03-31T19:36:41.851Z,13.74
2023-03-31T19:39:11.306Z,13.73
2023-03-31T19:41:40.001Z,13.72
2023-03-31T19:44:08.154Z,13.71
2023-03-31T19:46:36.462Z,13.70
2023-03-31T19:49:04.947Z,13.68
2023-03-31T19:51:34.890Z,13.67
2023-03-31T19:54:03.466Z,13.67
2023-03-31T19:56:33.567Z,13.67
2023-03-31T19:59:02.120Z,13.66
2023-03-31T20:01:30.710Z,13.64
2023-03-31T20:04:05.235Z,13.62
2023-03-31T20:06:34.294Z,13.60
2023-03-31T20:09:03.784Z,13.60
2023-03-31T20:11:32.984Z,13.59
2023-03-31T20:14:02.606Z,13.59
2023-03-31T20:16:31.296Z,13.58
2023-03-31T20:19:02.392Z,13.56
2023-03-31T20:21:32.332Z,13.56
2023-03-31T20:24:04.893Z,13.55
2023-03-31T20:26:33.778Z,13.54
2023-03-31T20:29:02.934Z,13.53
2023-03-31T20:31:34.125Z,13.52
2023-03-31T20:34:02.812Z,13.53
2023-03-31T20:36:32.168Z,13.52
2023-03-31T20:39:00.958Z,13.51
2023-03-31T20:41:29.891Z,13.50
2023-03-31T20:43:58.332Z,13.48
2023-03-31T20:46:26.769Z,13.48
2023-03-31T20:48:56.747Z,13.48
2023-03-31T20:51:32.592Z,13.46
2023-03-31T20:54:02.024Z,13.45
2023-03-31T20:56:32.615Z,13.43
2023-03-31T20:59:01.235Z,13.41
2023-03-31T21:01:31.977Z,13.40
2023-03-31T21:04:02.345Z,13.38
2023-03-31T21:06:36.521Z,13.36
2023-03-31T21:09:05.389Z,13.34
2023-03-31T21:11:34.287Z,13.33
2023-03-31T21:14:02.509Z,13.32
2023-03-31T21:16:30.752Z,13.31
2023-03-31T21:19:00.021Z,13.31
2023-03-31T21:21:29.147Z,13.33
2023-03-31T21:23:58.280Z,13.34
2023-03-31T21:26:27.208Z,13.34
2023-03-31T21:28:57.943Z,13.36
2023-03-31T21:31:27.757Z,13.35
2023-03-31T21:34:01.436Z,13.36
2023-03-31T21:36:30.452Z,13.36
2023-03-31T21:38:58.690Z,13.36
2023-03-31T21:41:30.117Z,13.36
2023-03-31T21:44:03.011Z,13.35
2023-03-31T21:46:32.919Z,13.36
2023-03-31T21:49:02.624Z,13.36
2023-03-31T21:51:30.942Z,13.37
2023-03-31T21:53:59.138Z,13.35
2023-03-31T21:56:31.950Z,13.34
2023-03-31T21:59:02.463Z,13.32
2023-03-31T22:01:31.439Z,13.29
2023-03-31T22:04:00.751Z,13.27
2023-03-31T22:06:29.595Z,13.25
2023-03-31T22:08:57.934Z,13.22
2023-03-31T22:11:31.275Z,13.18
2023-03-31T22:14:00.152Z,13.14
2023-03-31T22:16:28.966Z,13.09
2023-03-31T22:19:00.239Z,13.04
2023-03-31T22:21:43.665Z,13.02
2023-03-31T22:24:12.834Z,12.99
2023-03-31T22:26:41.202Z,12.96
2023-03-31T22:29:13.842Z,12.93
2023-03-31T22:31:42.553Z,12.91
2023-03-31T22:34:11.304Z,12.90
2023-03-31T22:36:39.667Z,12.88
2023-03-31T22:39:07.958Z,12.86
2023-03-31T22:41:36.796Z,12.85
2023-03-31T22:44:05.248Z,12.83
2023-03-31T22:46:33.486Z,12.82
2023-03-31T22:49:01.915Z,12.80
2023-03-31T22:51:30.650Z,12.77
2023-03-31T22:53:58.926Z,12.74
2023-03-31T22:56:27.936Z,12.66
2023-03-31T22:58:56.948Z,12.60
2023-03-31T23:01:26.288Z,12.57
2023-03-31T23:03:55.905Z,12.57
2023-03-31T23:06:24.200Z,12.56
2023-03-31T23:08:53.936Z,12.55
2023-03-31T23:11:23.137Z,12.54
2023-03-31T23:13:53.428Z,12.54
2023-03-31T23:16:25.851Z,12.51
2023-03-31T23:18:54.446Z,12.48
2023-03-31T23:21:24.882Z,12.44
2023-03-31T23:23:55.149Z,12.42
2023-03-31T23:26:24.617Z,12.39
2023-03-31T23:28:54.239Z,12.35
2023-03-31T23:31:24.144Z,12.33
2023-03-31T23:33:52.838Z,12.32
2023-03-31T23:36:21.549Z,12.30
2023-03-31T23:38:50.784Z,12.28
2023-03-31T23:41:19.387Z,12.26
2023-03-31T23:43:48.072Z,12.24
2023-03-31T23:46:16.773Z,12.23
2023-03-31T23:48:45.563Z,12.22
2023-03-31T23:51:15.214Z,12.21
2023-03-31T23:53:44.790Z,12.20
2023-03-31T23:56:17.162Z,12.20
2023-03-31T23:58:45.465Z,12.18
